createdAt,value
2018-04-29T00:00:38.716Z,90.48
2018-04-29T00:03:06.906Z,91.05
2018-04-29T00:05:35.046Z,91.46
2018-04-29T00:08:03.181Z,91.08
2018-04-29T00:10:31.377Z,91.99
2018-04-29T00:12:59.550Z,91.72
2018-04-29T00:15:27.712Z,91.85
2018-04-29T00:17:55.832Z,91.99
2018-04-29T00:20:23.981Z,92.28
2018-04-29T00:22:52.105Z,92.35
2018-04-29T00:25:20.405Z,92.47
2018-04-29T00:27:48.689Z,93.49
2018-04-29T00:30:16.838Z,93.20
2018-04-29T00:32:45.046Z,92.86
2018-04-29T00:35:13.197Z,93.12
2018-04-29T00:37:41.320Z,92.95
2018-04-29T00:40:09.453Z,92.95
2018-04-29T00:42:37.589Z,92.77
2018-04-29T00:45:05.797Z,92.60
2018-04-29T00:47:33.914Z,92.43
2018-04-29T00:50:02.082Z,92.52
2018-04-29T00:52:30.239Z,92.54
2018-04-29T00:54:58.384Z,92.62
2018-04-29T00:57:26.522Z,92.47
2018-04-29T00:59:54.651Z,92.88
2018-04-29T01:02:22.808Z,92.92
2018-04-29T01:04:50.948Z,92.67
2018-04-29T01:07:19.096Z,92.43
2018-04-29T01:09:47.260Z,92.83
2018-04-29T01:12:15.405Z,93.38
2018-04-29T01:14:43.540Z,93.42
2018-04-29T01:17:11.689Z,93.19
2018-04-29T01:19:39.814Z,93.25
2018-04-29T01:22:07.944Z,95.09
2018-04-29T01:24:36.074Z,92.95
2018-04-29T01:27:04.204Z,92.58
2018-04-29T01:29:32.355Z,92.42
2018-04-29T01:32:00.506Z,92.71
2018-04-29T01:34:28.623Z,93.48
2018-04-29T01:36:56.769Z,93.54
2018-04-29T01:39:24.902Z,93.41
2018-04-29T01:41:53.050Z,93.61
2018-04-29T01:44:21.190Z,93.88
2018-04-29T01:46:49.318Z,94.08
2018-04-29T01:49:17.445Z,94.36
2018-04-29T01:51:45.626Z,95.00
2018-04-29T01:54:13.711Z,95.16
2018-04-29T01:56:41.859Z,94.79
2018-04-29T01:59:09.982Z,94.56
2018-04-29T02:01:38.110Z,94.54
2018-04-29T02:04:06.262Z,94.43
2018-04-29T02:06:34.409Z,94.44
2018-04-29T02:09:02.518Z,94.56
2018-04-29T02:11:30.667Z,94.55
2018-04-29T02:13:58.792Z,94.48
2018-04-29T02:16:26.925Z,94.47
2018-04-29T02:18:55.063Z,94.11
2018-04-29T02:21:23.766Z,94.93
2018-04-29T02:23:52.613Z,95.54
2018-04-29T02:26:20.759Z,95.84
2018-04-29T02:28:48.895Z,96.20
2018-04-29T02:31:17.034Z,95.78
2018-04-29T02:33:45.166Z,95.46
2018-04-29T02:36:13.291Z,94.99
2018-04-29T02:38:41.422Z,95.21
2018-04-29T02:41:09.547Z,95.29
2018-04-29T02:43:37.700Z,95.29
2018-04-29T02:46:05.818Z,95.42
2018-04-29T02:48:33.955Z,95.86
2018-04-29T02:51:02.071Z,95.79
2018-04-29T02:53:30.206Z,95.46
2018-04-29T02:55:58.352Z,95.41
2018-04-29T02:58:26.480Z,95.25
2018-04-29T03:00:54.633Z,96.20
2018-04-29T03:03:22.762Z,95.71
2018-04-29T03:05:50.890Z,96.60
2018-04-29T03:08:19.025Z,96.20
2018-04-29T03:10:47.163Z,96.16
2018-04-29T03:13:15.368Z,95.94
2018-04-29T03:15:43.502Z,95.78
2018-04-29T03:18:11.645Z,95.53
2018-04-29T03:20:39.767Z,95.43
2018-04-29T03:23:07.916Z,95.24
2018-04-29T03:25:36.050Z,95.17
2018-04-29T03:28:04.202Z,95.23
2018-04-29T03:30:32.388Z,95.36
2018-04-29T03:33:00.519Z,95.22
2018-04-29T03:35:28.643Z,95.37
2018-04-29T03:37:56.798Z,95.66
2018-04-29T03:40:24.919Z,95.86
2018-04-29T03:42:53.061Z,95.77
2018-04-29T03:45:21.189Z,95.74
2018-04-29T03:47:49.332Z,95.79
2018-04-29T03:50:17.466Z,95.64
2018-04-29T03:52:45.593Z,95.70
2018-04-29T03:55:13.738Z,95.77
2018-04-29T03:57:53.693Z,95.47
2018-04-29T04:00:33.490Z,95.90
2018-04-29T04:03:13.626Z,96.32
2018-04-29T04:05:41.762Z,96.37
2018-04-29T04:08:09.897Z,96.10
2018-04-29T04:10:38.031Z,96.06
2018-04-29T04:13:06.235Z,95.89
2018-04-29T04:15:34.354Z,96.03
2018-04-29T04:18:02.485Z,95.91
2018-04-29T04:20:30.623Z,95.87
2018-04-29T04:22:58.764Z,95.89
2018-04-29T04:25:26.912Z,95.59
2018-04-29T04:27:55.046Z,95.30
2018-04-29T04:30:23.205Z,94.83
2018-04-29T04:32:51.343Z,95.26
2018-04-29T04:35:19.495Z,95.16
2018-04-29T04:37:47.611Z,95.08
2018-04-29T04:40:15.807Z,94.65
2018-04-29T04:42:43.904Z,94.13
2018-04-29T04:45:12.043Z,93.69
2018-04-29T04:47:40.196Z,93.77
2018-04-29T04:50:08.337Z,93.85
2018-04-29T04:52:36.470Z,93.95
2018-04-29T04:55:04.612Z,93.37
2018-04-29T04:57:32.740Z,93.63
2018-04-29T05:00:00.864Z,93.27
2018-04-29T05:02:29.015Z,92.46
2018-04-29T05:04:57.135Z,91.50
2018-04-29T05:07:25.287Z,91.19
2018-04-29T05:09:53.405Z,91.60
2018-04-29T05:12:21.535Z,91.31
2018-04-29T05:14:49.667Z,91.30
2018-04-29T05:17:17.790Z,91.33
2018-04-29T05:19:45.928Z,91.20
2018-04-29T05:22:14.132Z,90.21
2018-04-29T05:24:42.195Z,89.36
2018-04-29T05:27:10.781Z,89.98
2018-04-29T05:29:38.933Z,89.98
2018-04-29T05:32:07.049Z,88.18
2018-04-29T05:34:35.175Z,88.81
2018-04-29T05:37:03.304Z,88.49
2018-04-29T05:39:31.442Z,88.13
2018-04-29T05:41:59.575Z,86.91
2018-04-29T05:44:27.706Z,87.98
2018-04-29T05:46:55.855Z,88.40
2018-04-29T05:49:23.988Z,86.67
2018-04-29T05:51:52.145Z,85.73
2018-04-29T05:54:20.289Z,85.58
2018-04-29T05:56:48.450Z,86.25
2018-04-29T05:59:16.600Z,85.79
2018-04-29T06:01:44.715Z,85.43
2018-04-29T06:04:12.863Z,85.89
2018-04-29T06:06:41.040Z,83.36
2018-04-29T06:09:09.872Z,82.80
2018-04-29T06:11:37.948Z,82.19
2018-04-29T06:14:06.144Z,82.31
2018-04-29T06:16:35.102Z,83.30
2018-04-29T06:19:03.232Z,82.08
2018-04-29T06:21:31.376Z,80.09
2018-04-29T06:23:59.514Z,79.63
2018-04-29T06:26:27.649Z,77.96
2018-04-29T06:28:55.793Z,77.10
2018-04-29T06:31:23.916Z,76.54
2018-04-29T06:33:52.071Z,75.29
2018-04-29T06:36:20.208Z,75.57
2018-04-29T06:38:48.350Z,76.96
2018-04-29T06:41:16.499Z,76.83
2018-04-29T06:43:44.629Z,76.31
2018-04-29T06:46:12.795Z,73.78
2018-04-29T06:48:40.945Z,72.52
2018-04-29T06:51:09.072Z,72.54
2018-04-29T06:53:37.229Z,72.47
2018-04-29T06:56:05.359Z,71.79
2018-04-29T06:58:33.480Z,70.36
2018-04-29T07:01:01.606Z,70.14
2018-04-29T07:03:29.780Z,68.94
2018-04-29T07:05:57.903Z,69.06
2018-04-29T07:08:26.053Z,71.21
2018-04-29T07:10:54.191Z,70.59
2018-04-29T07:13:22.327Z,70.55
2018-04-29T07:15:50.461Z,71.43
2018-04-29T07:18:18.743Z,69.41
2018-04-29T07:20:46.880Z,68.56
2018-04-29T07:23:15.031Z,69.78
2018-04-29T07:25:43.167Z,70.84
2018-04-29T07:28:11.342Z,69.13
2018-04-29T07:30:39.479Z,69.69
2018-04-29T07:33:07.608Z,69.55
2018-04-29T07:35:35.756Z,68.46
2018-04-29T07:38:03.887Z,69.49
2018-04-29T07:40:32.026Z,68.17
2018-04-29T07:43:00.174Z,67.40
2018-04-29T07:45:28.324Z,67.62
2018-04-29T07:47:56.484Z,67.56
2018-04-29T07:50:24.625Z,65.83
2018-04-29T07:52:52.751Z,62.95
2018-04-29T07:55:20.909Z,61.25
2018-04-29T07:57:49.037Z,62.49
2018-04-29T08:00:17.171Z,62.78
2018-04-29T08:02:45.316Z,60.68
2018-04-29T08:05:13.530Z,63.13
2018-04-29T08:07:41.680Z,58.97
2018-04-29T08:10:09.846Z,59.14
2018-04-29T08:12:37.969Z,59.64
2018-04-29T08:15:06.193Z,58.21
2018-04-29T08:17:34.313Z,56.37
2018-04-29T08:20:02.435Z,57.23
2018-04-29T08:22:30.563Z,56.69
2018-04-29T08:24:58.730Z,54.77
2018-04-29T08:27:26.887Z,56.57
2018-04-29T08:29:55.071Z,56.96
2018-04-29T08:32:23.204Z,58.77
2018-04-29T08:34:51.327Z,57.21
2018-04-29T08:37:19.447Z,55.85
2018-04-29T08:39:47.639Z,55.56
2018-04-29T08:42:15.763Z,55.10
2018-04-29T08:44:43.882Z,56.45
2018-04-29T08:47:12.081Z,57.40
2018-04-29T08:49:40.176Z,52.89
2018-04-29T08:52:08.290Z,52.62
2018-04-29T08:54:36.456Z,53.56
2018-04-29T08:57:04.607Z,51.63
2018-04-29T08:59:32.766Z,51.88
2018-04-29T09:02:00.924Z,54.21
2018-04-29T09:04:29.063Z,51.24
2018-04-29T09:06:57.229Z,48.42
2018-04-29T09:09:25.404Z,50.91
2018-04-29T09:11:53.540Z,48.08
2018-04-29T09:14:21.667Z,48.01
2018-04-29T09:16:49.836Z,46.47
2018-04-29T09:19:17.971Z,47.25
2018-04-29T09:21:46.099Z,45.68
2018-04-29T09:24:14.233Z,45.39
2018-04-29T09:26:42.527Z,45.60
2018-04-29T09:29:10.676Z,46.20
2018-04-29T09:31:38.800Z,45.90
2018-04-29T09:34:06.941Z,45.91
2018-04-29T09:36:35.071Z,46.67
2018-04-29T09:39:03.210Z,46.66
2018-04-29T09:41:32.319Z,46.29
2018-04-29T09:44:00.483Z,45.24
2018-04-29T09:46:28.611Z,44.52
2018-04-29T09:48:56.784Z,45.86
2018-04-29T09:51:24.940Z,43.22
2018-04-29T09:53:53.095Z,42.00
2018-04-29T09:56:21.239Z,40.61
2018-04-29T09:58:49.399Z,43.28
2018-04-29T10:01:25.011Z,39.42
2018-04-29T10:03:53.157Z,40.95
2018-04-29T10:06:21.307Z,39.18
2018-04-29T10:08:49.444Z,39.38
2018-04-29T10:11:17.559Z,37.68
2018-04-29T10:13:45.717Z,34.81
2018-04-29T10:18:48.344Z,33.53
2018-04-29T10:21:16.452Z,31.88
2018-04-29T10:23:44.585Z,32.84
2018-04-29T10:26:12.709Z,32.74
2018-04-29T10:28:40.839Z,31.06
2018-04-29T10:31:09.998Z,31.30
2018-04-29T10:33:38.124Z,33.37
2018-04-29T10:36:06.262Z,29.68
2018-04-29T10:38:34.395Z,28.57
2018-04-29T10:41:02.594Z,29.16
2018-04-29T10:43:30.675Z,27.06
2018-04-29T10:45:58.793Z,27.92
2018-04-29T10:48:26.914Z,27.74
2018-04-29T10:50:55.065Z,25.50
2018-04-29T10:53:23.277Z,25.35
2018-04-29T10:55:51.422Z,28.90
2018-04-29T10:58:19.556Z,26.51
2018-04-29T11:00:47.707Z,27.11
2018-04-29T11:03:15.839Z,25.23
2018-04-29T11:05:43.977Z,25.60
2018-04-29T11:08:12.119Z,24.11
2018-04-29T11:10:40.279Z,25.72
2018-04-29T11:13:08.400Z,24.94
2018-04-29T11:15:36.558Z,26.84
2018-04-29T11:18:05.394Z,25.18
2018-04-29T11:20:33.510Z,25.88
2018-04-29T11:23:01.659Z,26.40
2018-04-29T11:25:29.807Z,25.69
2018-04-29T11:27:57.941Z,23.82
2018-04-29T11:30:26.101Z,24.01
2018-04-29T11:32:54.227Z,23.18
2018-04-29T11:35:22.376Z,24.03
2018-04-29T11:37:50.505Z,25.03
2018-04-29T11:40:18.660Z,25.95
2018-04-29T11:42:46.803Z,24.10
2018-04-29T11:45:14.966Z,24.12
2018-04-29T11:47:43.115Z,25.05
2018-04-29T11:50:11.272Z,25.84
2018-04-29T11:52:39.401Z,25.38
2018-04-29T11:55:07.557Z,24.24
2018-04-29T11:57:35.677Z,22.93
2018-04-29T12:00:03.842Z,25.54
2018-04-29T12:02:31.959Z,26.83
2018-04-29T12:05:00.111Z,24.91
2018-04-29T12:07:28.282Z,24.09
2018-04-29T12:09:56.463Z,24.50
2018-04-29T12:12:24.554Z,25.99
2018-04-29T12:14:52.724Z,25.42
2018-04-29T12:17:20.845Z,26.02
2018-04-29T12:19:49.025Z,25.46
2018-04-29T12:22:17.159Z,25.68
2018-04-29T12:24:45.299Z,26.38
2018-04-29T12:27:13.433Z,28.52
2018-04-29T12:29:41.554Z,28.54
2018-04-29T12:32:09.701Z,26.13
2018-04-29T12:34:37.841Z,25.09
2018-04-29T12:37:06.079Z,26.82
2018-04-29T12:39:34.220Z,27.03
2018-04-29T12:42:02.362Z,26.79
2018-04-29T12:44:30.478Z,27.76
2018-04-29T12:46:58.611Z,26.90
2018-04-29T12:49:26.749Z,27.24
2018-04-29T12:51:54.889Z,27.40
2018-04-29T12:54:23.814Z,27.06
2018-04-29T12:56:51.941Z,26.69
2018-04-29T12:59:20.063Z,30.00
2018-04-29T13:01:48.189Z,27.66
2018-04-29T13:04:16.327Z,29.63
2018-04-29T13:06:44.877Z,29.53
2018-04-29T13:09:12.994Z,28.20
2018-04-29T13:11:41.133Z,29.80
2018-04-29T13:14:09.260Z,27.70
2018-04-29T13:16:37.375Z,28.77
2018-04-29T13:19:05.536Z,30.66
2018-04-29T13:21:33.652Z,26.97
2018-04-29T13:24:01.786Z,27.58
2018-04-29T13:26:29.908Z,27.34
2018-04-29T13:28:58.037Z,28.65
2018-04-29T13:31:26.166Z,29.60
2018-04-29T13:33:54.304Z,29.05
2018-04-29T13:36:22.430Z,28.60
2018-04-29T13:38:50.613Z,29.45
2018-04-29T13:41:18.732Z,28.14
2018-04-29T13:43:46.854Z,29.49
2018-04-29T13:46:15.026Z,27.73
2018-04-29T13:48:43.149Z,28.88
2018-04-29T13:51:11.279Z,28.20
2018-04-29T13:53:39.398Z,29.28
2018-04-29T13:56:07.520Z,29.63
2018-04-29T13:58:35.658Z,29.13
2018-04-29T14:01:03.794Z,28.57
2018-04-29T14:03:31.943Z,29.21
2018-04-29T14:06:00.097Z,27.84
2018-04-29T14:08:28.223Z,30.01
2018-04-29T14:10:56.366Z,29.70
2018-04-29T14:13:24.479Z,29.15
2018-04-29T14:15:52.608Z,28.59
2018-04-29T14:18:20.802Z,29.33
2018-04-29T14:20:48.944Z,29.17
2018-04-29T14:23:17.079Z,29.49
2018-04-29T14:25:45.207Z,29.48
2018-04-29T14:28:13.340Z,28.81
2018-04-29T14:30:41.463Z,29.30
2018-04-29T14:33:09.987Z,30.16
2018-04-29T14:35:38.137Z,30.12
2018-04-29T14:38:06.268Z,30.01
2018-04-29T14:40:34.529Z,29.78
2018-04-29T14:43:02.656Z,31.24
2018-04-29T14:45:31.028Z,30.33
2018-04-29T14:47:59.162Z,29.75
2018-04-29T14:50:27.308Z,30.64
2018-04-29T14:52:55.457Z,29.87
2018-04-29T14:55:23.638Z,29.87
2018-04-29T14:57:51.757Z,31.47
2018-04-29T15:00:19.951Z,30.39
2018-04-29T15:02:48.076Z,31.67
2018-04-29T15:05:16.215Z,32.75
2018-04-29T15:07:44.360Z,32.93
2018-04-29T15:10:12.666Z,33.60
2018-04-29T15:12:40.779Z,34.26
2018-04-29T15:15:08.909Z,33.15
2018-04-29T15:17:37.076Z,33.33
2018-04-29T15:20:05.221Z,33.70
2018-04-29T15:22:33.358Z,33.75
2018-04-29T15:25:01.536Z,33.86
2018-04-29T15:27:29.666Z,33.17
2018-04-29T15:29:57.798Z,33.86
2018-04-29T15:32:25.984Z,34.50
2018-04-29T15:34:54.520Z,33.34
2018-04-29T15:37:24.043Z,33.12
2018-04-29T15:39:52.171Z,34.60
2018-04-29T15:42:20.301Z,33.27
2018-04-29T15:44:48.410Z,33.73
2018-04-29T15:47:16.534Z,34.48
2018-04-29T15:49:44.663Z,34.64
2018-04-29T15:52:12.795Z,34.52
2018-04-29T15:54:40.909Z,34.41
2018-04-29T15:57:09.880Z,34.08
2018-04-29T15:59:38.011Z,34.11
2018-04-29T16:02:06.136Z,34.69
2018-04-29T16:04:34.257Z,35.57
2018-04-29T16:07:02.411Z,36.27
2018-04-29T16:09:30.551Z,36.13
2018-04-29T16:11:58.669Z,36.83
2018-04-29T16:14:26.833Z,35.04
2018-04-29T16:16:54.981Z,36.15
2018-04-29T16:19:23.105Z,36.63
2018-04-29T16:21:51.231Z,35.81
2018-04-29T16:24:19.424Z,36.99
2018-04-29T16:26:47.606Z,36.89
2018-04-29T16:29:15.742Z,37.11
2018-04-29T16:31:43.891Z,36.83
2018-04-29T16:34:12.068Z,37.71
2018-04-29T16:36:40.201Z,35.95
2018-04-29T16:39:08.354Z,35.28
2018-04-29T16:41:36.482Z,36.53
2018-04-29T16:44:04.685Z,37.59
2018-04-29T16:46:32.855Z,37.50
2018-04-29T16:49:01.034Z,34.69
2018-04-29T16:51:29.185Z,34.30
2018-04-29T16:53:57.339Z,34.09
2018-04-29T16:56:25.470Z,33.90
2018-04-29T16:58:53.597Z,33.66
2018-04-29T17:01:21.754Z,33.51
2018-04-29T17:03:49.867Z,34.09
2018-04-29T17:06:18.012Z,34.59
2018-04-29T17:08:46.180Z,34.66
2018-04-29T17:11:14.312Z,34.81
2018-04-29T17:13:42.443Z,34.39
2018-04-29T17:16:10.589Z,33.95
2018-04-29T17:18:38.761Z,33.11
2018-04-29T17:21:06.990Z,33.37
2018-04-29T17:23:35.104Z,33.89
2018-04-29T17:26:03.248Z,34.31
2018-04-29T17:28:31.363Z,34.63
2018-04-29T17:30:59.498Z,33.78
2018-04-29T17:33:27.648Z,33.74
2018-04-29T17:35:55.770Z,34.27
2018-04-29T17:38:23.902Z,34.87
2018-04-29T17:40:52.021Z,34.45
2018-04-29T17:43:20.157Z,34.52
2018-04-29T17:45:48.275Z,34.47
2018-04-29T17:48:16.413Z,34.44
2018-04-29T17:50:44.538Z,34.47
2018-04-29T17:53:12.748Z,34.76
2018-04-29T17:55:40.865Z,34.54
2018-04-29T17:58:09.003Z,35.04
2018-04-29T18:00:37.128Z,35.00
2018-04-29T18:03:05.313Z,35.33
2018-04-29T18:05:33.444Z,34.98
2018-04-29T18:08:01.611Z,34.78
2018-04-29T18:10:30.098Z,34.76
2018-04-29T18:12:58.274Z,34.05
2018-04-29T18:15:26.404Z,34.82
2018-04-29T18:17:54.531Z,34.39
2018-04-29T18:20:22.655Z,34.11
2018-04-29T18:22:50.825Z,34.42
2018-04-29T18:25:18.977Z,34.54
2018-04-29T18:27:47.206Z,34.78
2018-04-29T18:30:15.261Z,34.92
2018-04-29T18:32:43.805Z,35.03
2018-04-29T18:35:12.055Z,35.07
2018-04-29T18:37:40.222Z,35.27
2018-04-29T18:40:08.375Z,35.06
2018-04-29T18:42:36.505Z,35.42
2018-04-29T18:45:04.667Z,35.42
2018-04-29T18:47:32.805Z,35.79
2018-04-29T18:50:00.993Z,36.10
2018-04-29T18:52:29.139Z,36.07
2018-04-29T18:54:57.327Z,36.46
2018-04-29T18:57:25.500Z,36.87
2018-04-29T18:59:53.768Z,37.17
2018-04-29T19:02:21.984Z,37.72
2018-04-29T19:04:50.165Z,38.65
2018-04-29T19:07:18.342Z,38.99
2018-04-29T19:09:46.521Z,39.65
2018-04-29T19:12:14.719Z,39.66
2018-04-29T19:14:42.907Z,40.31
2018-04-29T19:17:11.097Z,41.04
2018-04-29T19:19:39.282Z,41.75
2018-04-29T19:22:07.415Z,42.81
2018-04-29T19:24:35.614Z,42.83
2018-04-29T19:27:03.810Z,43.15
2018-04-29T19:29:31.991Z,44.06
2018-04-29T19:32:00.182Z,44.82
2018-04-29T19:34:28.309Z,44.66
2018-04-29T19:36:56.443Z,44.79
2018-04-29T19:39:27.388Z,44.71
2018-04-29T19:41:55.502Z,44.56
2018-04-29T19:44:23.627Z,45.15
2018-04-29T19:46:51.748Z,45.25
2018-04-29T19:49:19.875Z,46.18
2018-04-29T19:51:48.565Z,45.59
2018-04-29T19:54:16.747Z,45.85
2018-04-29T19:56:44.865Z,46.64
2018-04-29T19:59:13.003Z,47.47
2018-04-29T20:01:41.131Z,47.51
2018-04-29T20:04:09.264Z,47.47
2018-04-29T20:06:37.378Z,47.81
2018-04-29T20:09:05.590Z,48.06
2018-04-29T20:11:33.844Z,48.21
2018-04-29T20:14:01.871Z,48.00
2018-04-29T20:16:29.991Z,48.55
2018-04-29T20:18:58.112Z,48.92
2018-04-29T20:21:26.243Z,48.94
2018-04-29T20:23:54.472Z,48.87
2018-04-29T20:26:22.504Z,49.73
2018-04-29T20:28:50.634Z,50.47
2018-04-29T20:31:18.762Z,51.06
2018-04-29T20:33:46.900Z,51.10
2018-04-29T20:36:15.030Z,50.99
2018-04-29T20:38:43.165Z,51.38
2018-04-29T20:41:11.298Z,51.95
2018-04-29T20:43:39.415Z,52.40
2018-04-29T20:46:07.550Z,53.54
2018-04-29T20:48:35.765Z,53.65
2018-04-29T20:51:04.189Z,54.56
2018-04-29T20:53:32.330Z,54.44
2018-04-29T20:56:00.456Z,54.41
2018-04-29T20:58:28.630Z,54.39
2018-04-29T21:00:56.772Z,55.93
2018-04-29T21:03:24.899Z,56.26
2018-04-29T21:05:53.023Z,55.82
2018-04-29T21:08:21.149Z,56.24
2018-04-29T21:10:49.265Z,56.55
2018-04-29T21:13:17.430Z,56.50
2018-04-29T21:15:45.543Z,56.53
2018-04-29T21:18:13.670Z,55.84
2018-04-29T21:20:41.800Z,55.82
2018-04-29T21:23:10.537Z,56.54
2018-04-29T21:25:38.662Z,57.50
2018-04-29T21:28:06.791Z,56.86
2018-04-29T21:30:35.526Z,56.24
2018-04-29T21:33:03.642Z,55.61
2018-04-29T21:35:31.782Z,55.20
2018-04-29T21:37:59.939Z,55.70
2018-04-29T21:40:28.035Z,55.71
2018-04-29T21:42:56.955Z,56.09
2018-04-29T21:45:25.093Z,57.49
2018-04-29T21:47:53.247Z,58.36
2018-04-29T21:50:21.371Z,60.00
2018-04-29T21:52:49.495Z,60.64
2018-04-29T21:55:17.607Z,60.62
2018-04-29T21:57:45.754Z,60.41
2018-04-29T22:00:13.881Z,60.44
2018-04-29T22:02:41.991Z,61.08
2018-04-29T22:05:10.108Z,60.64
2018-04-29T22:07:38.232Z,60.44
2018-04-29T22:10:06.372Z,60.29
2018-04-29T22:12:34.490Z,60.95
2018-04-29T22:15:02.634Z,62.57
2018-04-29T22:17:30.763Z,63.74
2018-04-29T22:19:59.144Z,63.63
2018-04-29T22:22:28.042Z,63.81
2018-04-29T22:24:56.170Z,64.12
2018-04-29T22:27:24.292Z,65.03
2018-04-29T22:29:52.422Z,64.41
2018-04-29T22:32:20.544Z,64.56
2018-04-29T22:34:48.665Z,64.98
2018-04-29T22:37:16.869Z,65.76
2018-04-29T22:39:44.910Z,64.93
2018-04-29T22:42:13.030Z,65.36
2018-04-29T22:44:41.152Z,63.54
2018-04-29T22:47:09.276Z,62.35
2018-04-29T22:49:37.414Z,62.21
2018-04-29T22:52:05.535Z,62.67
2018-04-29T22:54:33.755Z,64.44
2018-04-29T22:57:01.891Z,64.34
2018-04-29T22:59:30.021Z,64.52
2018-04-29T23:01:58.145Z,65.14
2018-04-29T23:04:26.273Z,65.69
2018-04-29T23:06:54.401Z,66.62
2018-04-29T23:09:22.547Z,67.38
2018-04-29T23:11:50.682Z,67.79
2018-04-29T23:14:18.806Z,67.42
2018-04-29T23:16:46.928Z,68.04
2018-04-29T23:19:15.059Z,67.92
2018-04-29T23:21:43.185Z,68.33
2018-04-29T23:24:11.311Z,68.04
2018-04-29T23:26:39.439Z,68.28
2018-04-29T23:29:07.606Z,68.12
2018-04-29T23:31:35.722Z,69.06
2018-04-29T23:34:03.876Z,69.25
2018-04-29T23:36:32.015Z,69.83
2018-04-29T23:39:00.148Z,70.01
2018-04-29T23:41:28.280Z,69.97
2018-04-29T23:43:56.415Z,69.97
2018-04-29T23:46:24.550Z,70.40
2018-04-29T23:48:52.810Z,72.17
2018-04-29T23:51:20.939Z,72.22
2018-04-29T23:53:49.072Z,72.82
2018-04-29T23:56:17.232Z,73.84
2018-04-29T23:58:45.380Z,74.32
